Terminal Aerodrome Forecast
Issued by NWS Jackson, KY

Home | Current Version | Previous Version | Text Only | Print | Product List | Glossary On
Versions: 1 2 3 4 5 6 7 8 9 10 11 12 13 14 15 16 17 18 19
000
FTUS43 KJKL 190539
TAFLOZ
TAF
KLOZ 190539Z 1906/2006 VRB04KT P6SM BKN150
     FM190900 10005KT 6SM -SHRA BR BKN035 OVC090
     FM191200 15008KT 5SM -SHRA BR SCT020 BKN035 OVC090
     FM191500 19009KT 2SM -SHRA BR VCTS BKN015CB BKN120
     FM192000 20010G20KT P6SM VCTS BKN030CB BKN250=

USA.gov is the U.S. government's official web portal to all federal, state and local government web resources and services.